Terminal Aerodrome Forecast
Issued by NWS

Home | Current Version | Previous Version | Graphics & Text | Print | Product List | Glossary On
Versions: 1 2 3 4 5 6 7 8 9 10 11 12 13 14 15 16 17
000
FTUS43 KICT 181016 AAA
TAFCNU
TAF AMD
KCNU 181016Z 1810/1906 32018G27KT P6SM SCT009 BKN015
      TEMPO 1810/1814 BKN009
     FM181400 33024G34KT P6SM BKN015
     FM181700 33026G35KT P6SM SCT030
     FM190000 31012KT P6SM SKC=

USA.gov is the U.S. government's official web portal to all federal, state and local government web resources and services.